sensor_id;sensor_type;location;lat;lon;timestamp;P1;durP1;ratioP1;P2;durP2;ratioP2
22937;SDS011;11634;42.734;23.298;2023-07-31T00:00:05;4.88;;;4.38;;
22937;SDS011;11634;42.734;23.298;2023-07-31T00:02:30;4.15;;;3.72;;
22937;SDS011;11634;42.734;23.298;2023-07-31T00:04:56;5.28;;;3.90;;
22937;SDS011;11634;42.734;23.298;2023-07-31T00:07:21;3.80;;;3.50;;
22937;SDS011;11634;42.734;23.298;2023-07-31T00:09:47;5.18;;;3.97;;
22937;SDS011;11634;42.734;23.298;2023-07-31T00:12:12;4.57;;;4.18;;
22937;SDS011;11634;42.734;23.298;2023-07-31T00:14:37;5.18;;;4.18;;
22937;SDS011;11634;42.734;23.298;2023-07-31T00:17:03;5.40;;;3.58;;
22937;SDS011;11634;42.734;23.298;2023-07-31T00:19:28;4.40;;;4.05;;
22937;SDS011;11634;42.734;23.298;2023-07-31T00:21:54;4.55;;;4.15;;
22937;SDS011;11634;42.734;23.298;2023-07-31T00:24:19;4.35;;;3.95;;
22937;SDS011;11634;42.734;23.298;2023-07-31T00:26:45;4.57;;;3.92;;
22937;SDS011;11634;42.734;23.298;2023-07-31T00:29:10;4.88;;;4.47;;
22937;SDS011;11634;42.734;23.298;2023-07-31T00:31:36;8.05;;;4.47;;
22937;SDS011;11634;42.734;23.298;2023-07-31T00:34:01;5.53;;;4.55;;
22937;SDS011;11634;42.734;23.298;2023-07-31T00:36:27;4.78;;;4.38;;
22937;SDS011;11634;42.734;23.298;2023-07-31T00:38:52;4.93;;;4.45;;
22937;SDS011;11634;42.734;23.298;2023-07-31T00:41:17;5.78;;;5.07;;
22937;SDS011;11634;42.734;23.298;2023-07-31T00:43:43;6.05;;;5.45;;
22937;SDS011;11634;42.734;23.298;2023-07-31T00:46:08;5.35;;;4.85;;
22937;SDS011;11634;42.734;23.298;2023-07-31T00:48:34;6.03;;;5.53;;
22937;SDS011;11634;42.734;23.298;2023-07-31T00:51:00;5.88;;;5.10;;
22937;SDS011;11634;42.734;23.298;2023-07-31T00:53:26;6.20;;;5.60;;
22937;SDS011;11634;42.734;23.298;2023-07-31T00:55:52;6.97;;;6.25;;
22937;SDS011;11634;42.734;23.298;2023-07-31T00:58:19;6.65;;;6.05;;
22937;SDS011;11634;42.734;23.298;2023-07-31T01:00:44;7.45;;;6.75;;
22937;SDS011;11634;42.734;23.298;2023-07-31T01:03:10;7.22;;;6.63;;
22937;SDS011;11634;42.734;23.298;2023-07-31T01:05:55;8.18;;;7.47;;
22937;SDS011;11634;42.734;23.298;2023-07-31T01:10:52;10.23;;;9.20;;
22937;SDS011;11634;42.734;23.298;2023-07-31T01:13:20;10.52;;;9.57;;
22937;SDS011;11634;42.734;23.298;2023-07-31T01:15:46;11.45;;;10.35;;
22937;SDS011;11634;42.734;23.298;2023-07-31T01:18:13;11.45;;;10.45;;
22937;SDS011;11634;42.734;23.298;2023-07-31T01:20:38;12.18;;;11.07;;
22937;SDS011;11634;42.734;23.298;2023-07-31T01:28:33;14.18;;;12.70;;
22937;SDS011;11634;42.734;23.298;2023-07-31T01:31:00;14.57;;;13.27;;
22937;SDS011;11634;42.734;23.298;2023-07-31T01:33:28;16.65;;;15.15;;
22937;SDS011;11634;42.734;23.298;2023-07-31T01:35:53;17.00;;;15.50;;
22937;SDS011;11634;42.734;23.298;2023-07-31T01:38:22;16.52;;;14.93;;
22937;SDS011;11634;42.734;23.298;2023-07-31T01:40:51;17.63;;;16.13;;
22937;SDS011;11634;42.734;23.298;2023-07-31T01:43:17;17.85;;;16.17;;
22937;SDS011;11634;42.734;23.298;2023-07-31T01:45:43;19.35;;;17.55;;
22937;SDS011;11634;42.734;23.298;2023-07-31T01:48:08;20.77;;;18.40;;
22937;SDS011;11634;42.734;23.298;2023-07-31T01:50:34;21.17;;;19.17;;
22937;SDS011;11634;42.734;23.298;2023-07-31T01:52:59;24.38;;;19.30;;
22937;SDS011;11634;42.734;23.298;2023-07-31T01:55:25;22.90;;;20.73;;
22937;SDS011;11634;42.734;23.298;2023-07-31T01:57:50;21.88;;;19.88;;
22937;SDS011;11634;42.734;23.298;2023-07-31T02:00:17;22.38;;;20.30;;
22937;SDS011;11634;42.734;23.298;2023-07-31T02:02:44;22.38;;;20.40;;
22937;SDS011;11634;42.734;23.298;2023-07-31T02:05:10;23.63;;;21.33;;
22937;SDS011;11634;42.734;23.298;2023-07-31T02:07:36;24.23;;;21.88;;
22937;SDS011;11634;42.734;23.298;2023-07-31T02:10:02;22.63;;;20.52;;
22937;SDS011;11634;42.734;23.298;2023-07-31T02:12:27;23.63;;;21.23;;
22937;SDS011;11634;42.734;23.298;2023-07-31T02:14:55;23.02;;;20.63;;
22937;SDS011;11634;42.734;23.298;2023-07-31T02:17:21;23.20;;;21.05;;
22937;SDS011;11634;42.734;23.298;2023-07-31T02:19:46;23.05;;;20.85;;
22937;SDS011;11634;42.734;23.298;2023-07-31T02:22:11;24.30;;;21.90;;
22937;SDS011;11634;42.734;23.298;2023-07-31T02:24:37;25.05;;;22.48;;
22937;SDS011;11634;42.734;23.298;2023-07-31T02:27:02;25.17;;;22.77;;
22937;SDS011;11634;42.734;23.298;2023-07-31T02:29:28;26.13;;;23.42;;
22937;SDS011;11634;42.734;23.298;2023-07-31T02:31:54;25.75;;;23.27;;
22937;SDS011;11634;42.734;23.298;2023-07-31T02:34:19;26.40;;;23.60;;
22937;SDS011;11634;42.734;23.298;2023-07-31T02:36:45;27.27;;;24.42;;
22937;SDS011;11634;42.734;23.298;2023-07-31T02:39:11;26.42;;;23.92;;
22937;SDS011;11634;42.734;23.298;2023-07-31T02:41:36;26.92;;;24.52;;
22937;SDS011;11634;42.734;23.298;2023-07-31T02:44:01;27.45;;;24.90;;
22937;SDS011;11634;42.734;23.298;2023-07-31T02:46:27;27.38;;;24.88;;
22937;SDS011;11634;42.734;23.298;2023-07-31T02:48:52;27.23;;;24.63;;
22937;SDS011;11634;42.734;23.298;2023-07-31T02:51:19;27.48;;;24.98;;
22937;SDS011;11634;42.734;23.298;2023-07-31T02:53:46;28.00;;;25.27;;
22937;SDS011;11634;42.734;23.298;2023-07-31T02:56:13;26.10;;;23.50;;
22937;SDS011;11634;42.734;23.298;2023-07-31T02:58:38;27.92;;;25.30;;
22937;SDS011;11634;42.734;23.298;2023-07-31T03:01:03;26.50;;;24.15;;
22937;SDS011;11634;42.734;23.298;2023-07-31T03:03:29;25.27;;;22.83;;
22937;SDS011;11634;42.734;23.298;2023-07-31T03:05:55;25.50;;;23.10;;
22937;SDS011;11634;42.734;23.298;2023-07-31T03:08:20;27.20;;;24.60;;
22937;SDS011;11634;42.734;23.298;2023-07-31T03:10:46;27.02;;;24.60;;
22937;SDS011;11634;42.734;23.298;2023-07-31T03:13:11;26.98;;;24.25;;
22937;SDS011;11634;42.734;23.298;2023-07-31T03:15:37;25.73;;;23.42;;
22937;SDS011;11634;42.734;23.298;2023-07-31T03:18:02;26.25;;;23.65;;
22937;SDS011;11634;42.734;23.298;2023-07-31T03:20:27;27.13;;;24.42;;
22937;SDS011;11634;42.734;23.298;2023-07-31T03:22:53;26.65;;;24.20;;
22937;SDS011;11634;42.734;23.298;2023-07-31T03:25:18;27.02;;;24.48;;
22937;SDS011;11634;42.734;23.298;2023-07-31T03:27:44;27.52;;;25.05;;
22937;SDS011;11634;42.734;23.298;2023-07-31T03:30:09;27.15;;;24.42;;
22937;SDS011;11634;42.734;23.298;2023-07-31T03:32:35;27.55;;;24.65;;
22937;SDS011;11634;42.734;23.298;2023-07-31T03:35:00;27.63;;;24.88;;
22937;SDS011;11634;42.734;23.298;2023-07-31T03:37:26;27.02;;;24.42;;
22937;SDS011;11634;42.734;23.298;2023-07-31T03:39:53;27.30;;;24.50;;
22937;SDS011;11634;42.734;23.298;2023-07-31T03:42:18;27.80;;;25.20;;
22937;SDS011;11634;42.734;23.298;2023-07-31T03:44:44;26.80;;;24.10;;
22937;SDS011;11634;42.734;23.298;2023-07-31T03:47:10;28.23;;;25.40;;
22937;SDS011;11634;42.734;23.298;2023-07-31T03:49:36;27.25;;;24.65;;
22937;SDS011;11634;42.734;23.298;2023-07-31T03:52:02;27.52;;;24.77;;
22937;SDS011;11634;42.734;23.298;2023-07-31T03:54:27;28.27;;;25.48;;
22937;SDS011;11634;42.734;23.298;2023-07-31T03:56:53;28.77;;;25.75;;
22937;SDS011;11634;42.734;23.298;2023-07-31T03:59:18;29.10;;;26.35;;
22937;SDS011;11634;42.734;23.298;2023-07-31T04:01:45;28.48;;;25.67;;
22937;SDS011;11634;42.734;23.298;2023-07-31T04:04:13;29.08;;;26.25;;
22937;SDS011;11634;42.734;23.298;2023-07-31T04:06:40;28.60;;;25.73;;
22937;SDS011;11634;42.734;23.298;2023-07-31T04:09:05;29.83;;;26.75;;
22937;SDS011;11634;42.734;23.298;2023-07-31T04:11:30;29.33;;;26.45;;
22937;SDS011;11634;42.734;23.298;2023-07-31T04:13:56;29.23;;;26.40;;
22937;SDS011;11634;42.734;23.298;2023-07-31T04:16:21;30.42;;;27.52;;
22937;SDS011;11634;42.734;23.298;2023-07-31T04:18:47;27.30;;;24.40;;
22937;SDS011;11634;42.734;23.298;2023-07-31T04:21:12;30.20;;;27.25;;
22937;SDS011;11634;42.734;23.298;2023-07-31T04:23:38;30.75;;;27.75;;
22937;SDS011;11634;42.734;23.298;2023-07-31T04:26:03;29.05;;;26.20;;
22937;SDS011;11634;42.734;23.298;2023-07-31T04:28:29;28.88;;;25.98;;
22937;SDS011;11634;42.734;23.298;2023-07-31T04:30:57;30.92;;;27.90;;
22937;SDS011;11634;42.734;23.298;2023-07-31T04:33:22;29.63;;;26.63;;
22937;SDS011;11634;42.734;23.298;2023-07-31T04:35:53;28.10;;;25.40;;
22937;SDS011;11634;42.734;23.298;2023-07-31T04:38:19;28.38;;;25.73;;
22937;SDS011;11634;42.734;23.298;2023-07-31T04:40:47;28.83;;;26.02;;
22937;SDS011;11634;42.734;23.298;2023-07-31T04:43:12;27.50;;;24.80;;
22937;SDS011;11634;42.734;23.298;2023-07-31T04:45:38;28.88;;;26.08;;
22937;SDS011;11634;42.734;23.298;2023-07-31T04:48:03;27.23;;;24.27;;
22937;SDS011;11634;42.734;23.298;2023-07-31T04:50:28;27.25;;;24.65;;
22937;SDS011;11634;42.734;23.298;2023-07-31T04:52:55;26.98;;;24.33;;
22937;SDS011;11634;42.734;23.298;2023-07-31T04:55:21;26.17;;;23.60;;
22937;SDS011;11634;42.734;23.298;2023-07-31T04:57:46;26.02;;;23.38;;
22937;SDS011;11634;42.734;23.298;2023-07-31T05:00:12;23.92;;;21.63;;
22937;SDS011;11634;42.734;23.298;2023-07-31T05:02:37;23.27;;;21.17;;
22937;SDS011;11634;42.734;23.298;2023-07-31T05:05:03;23.05;;;20.80;;
22937;SDS011;11634;42.734;23.298;2023-07-31T05:07:28;24.70;;;22.30;;
22937;SDS011;11634;42.734;23.298;2023-07-31T05:09:54;24.33;;;21.67;;
22937;SDS011;11634;42.734;23.298;2023-07-31T05:12:19;22.05;;;19.85;;
22937;SDS011;11634;42.734;23.298;2023-07-31T05:14:45;21.40;;;19.50;;
22937;SDS011;11634;42.734;23.298;2023-07-31T05:17:10;22.70;;;20.45;;
22937;SDS011;11634;42.734;23.298;2023-07-31T05:19:35;21.83;;;19.70;;
22937;SDS011;11634;42.734;23.298;2023-07-31T05:22:01;20.90;;;19.00;;
22937;SDS011;11634;42.734;23.298;2023-07-31T05:24:26;21.27;;;19.48;;
22937;SDS011;11634;42.734;23.298;2023-07-31T05:26:52;21.13;;;19.17;;
22937;SDS011;11634;42.734;23.298;2023-07-31T05:29:17;19.90;;;17.90;;
22937;SDS011;11634;42.734;23.298;2023-07-31T05:31:43;18.33;;;16.70;;
22937;SDS011;11634;42.734;23.298;2023-07-31T05:34:08;17.67;;;16.17;;
22937;SDS011;11634;42.734;23.298;2023-07-31T05:36:34;16.38;;;14.98;;
22937;SDS011;11634;42.734;23.298;2023-07-31T05:38:59;15.82;;;14.32;;
22937;SDS011;11634;42.734;23.298;2023-07-31T05:41:24;15.35;;;13.95;;
22937;SDS011;11634;42.734;23.298;2023-07-31T05:43:50;15.02;;;13.73;;
22937;SDS011;11634;42.734;23.298;2023-07-31T05:46:16;14.43;;;13.18;;
22937;SDS011;11634;42.734;23.298;2023-07-31T05:48:42;15.38;;;13.80;;
22937;SDS011;11634;42.734;23.298;2023-07-31T05:51:07;15.30;;;13.75;;
22937;SDS011;11634;42.734;23.298;2023-07-31T05:53:32;13.15;;;11.95;;
22937;SDS011;11634;42.734;23.298;2023-07-31T05:55:58;14.98;;;12.45;;
22937;SDS011;11634;42.734;23.298;2023-07-31T05:58:24;13.15;;;11.90;;
22937;SDS011;11634;42.734;23.298;2023-07-31T06:00:49;12.82;;;11.63;;
22937;SDS011;11634;42.734;23.298;2023-07-31T06:03:15;11.50;;;10.48;;
22937;SDS011;11634;42.734;23.298;2023-07-31T06:05:40;10.90;;;9.90;;
22937;SDS011;11634;42.734;23.298;2023-07-31T06:08:06;10.65;;;9.75;;
22937;SDS011;11634;42.734;23.298;2023-07-31T06:10:31;9.43;;;8.45;;
22937;SDS011;11634;42.734;23.298;2023-07-31T06:12:56;9.50;;;8.57;;
22937;SDS011;11634;42.734;23.298;2023-07-31T06:15:22;8.98;;;8.18;;
22937;SDS011;11634;42.734;23.298;2023-07-31T06:17:48;9.55;;;8.65;;
22937;SDS011;11634;42.734;23.298;2023-07-31T06:20:13;8.88;;;8.18;;
22937;SDS011;11634;42.734;23.298;2023-07-31T06:22:38;7.75;;;6.95;;
22937;SDS011;11634;42.734;23.298;2023-07-31T06:25:04;9.10;;;8.20;;
22937;SDS011;11634;42.734;23.298;2023-07-31T06:27:29;9.90;;;7.78;;
22937;SDS011;11634;42.734;23.298;2023-07-31T06:29:55;8.98;;;8.07;;
22937;SDS011;11634;42.734;23.298;2023-07-31T06:32:20;7.32;;;6.63;;
22937;SDS011;11634;42.734;23.298;2023-07-31T06:34:46;7.93;;;6.85;;
22937;SDS011;11634;42.734;23.298;2023-07-31T06:37:11;10.38;;;6.13;;
22937;SDS011;11634;42.734;23.298;2023-07-31T06:39:38;9.57;;;6.95;;
22937;SDS011;11634;42.734;23.298;2023-07-31T06:42:03;7.78;;;5.93;;
22937;SDS011;11634;42.734;23.298;2023-07-31T06:44:29;16.20;;;7.45;;
22937;SDS011;11634;42.734;23.298;2023-07-31T06:46:54;6.82;;;5.78;;
22937;SDS011;11634;42.734;23.298;2023-07-31T06:49:20;7.80;;;5.57;;
22937;SDS011;11634;42.734;23.298;2023-07-31T06:51:45;7.13;;;4.93;;
22937;SDS011;11634;42.734;23.298;2023-07-31T06:54:11;8.20;;;5.00;;
22937;SDS011;11634;42.734;23.298;2023-07-31T06:56:36;6.93;;;4.72;;
22937;SDS011;11634;42.734;23.298;2023-07-31T06:59:02;5.38;;;4.88;;
22937;SDS011;11634;42.734;23.298;2023-07-31T07:01:27;7.85;;;5.25;;
22937;SDS011;11634;42.734;23.298;2023-07-31T07:03:53;7.05;;;4.45;;
22937;SDS011;11634;42.734;23.298;2023-07-31T07:06:19;8.25;;;5.20;;
22937;SDS011;11634;42.734;23.298;2023-07-31T07:08:44;6.78;;;4.45;;
22937;SDS011;11634;42.734;23.298;2023-07-31T07:11:10;7.10;;;4.93;;
22937;SDS011;11634;42.734;23.298;2023-07-31T07:13:35;5.45;;;4.95;;
22937;SDS011;11634;42.734;23.298;2023-07-31T07:16:01;12.48;;;5.57;;
22937;SDS011;11634;42.734;23.298;2023-07-31T07:18:26;5.40;;;4.90;;
22937;SDS011;11634;42.734;23.298;2023-07-31T07:20:52;5.70;;;4.43;;
22937;SDS011;11634;42.734;23.298;2023-07-31T07:23:20;6.05;;;5.47;;
22937;SDS011;11634;42.734;23.298;2023-07-31T07:25:46;6.28;;;5.55;;
22937;SDS011;11634;42.734;23.298;2023-07-31T07:28:12;9.27;;;5.70;;
22937;SDS011;11634;42.734;23.298;2023-07-31T07:30:37;6.78;;;5.13;;
22937;SDS011;11634;42.734;23.298;2023-07-31T07:33:03;4.85;;;4.35;;
22937;SDS011;11634;42.734;23.298;2023-07-31T07:35:28;6.60;;;4.75;;
22937;SDS011;11634;42.734;23.298;2023-07-31T07:37:53;6.72;;;5.13;;
22937;SDS011;11634;42.734;23.298;2023-07-31T07:40:19;5.13;;;4.50;;
22937;SDS011;11634;42.734;23.298;2023-07-31T07:42:45;9.20;;;4.13;;
22937;SDS011;11634;42.734;23.298;2023-07-31T07:45:10;3.95;;;3.35;;
22937;SDS011;11634;42.734;23.298;2023-07-31T07:47:36;6.68;;;3.92;;
22937;SDS011;11634;42.734;23.298;2023-07-31T07:50:01;10.07;;;3.75;;
22937;SDS011;11634;42.734;23.298;2023-07-31T07:52:27;4.10;;;3.70;;
22937;SDS011;11634;42.734;23.298;2023-07-31T07:54:52;4.35;;;3.95;;
22937;SDS011;11634;42.734;23.298;2023-07-31T07:57:18;7.38;;;4.20;;
22937;SDS011;11634;42.734;23.298;2023-07-31T07:59:43;135.77;;;12.73;;
22937;SDS011;11634;42.734;23.298;2023-07-31T08:02:09;4.93;;;3.92;;
22937;SDS011;11634;42.734;23.298;2023-07-31T08:04:34;6.80;;;4.05;;
22937;SDS011;11634;42.734;23.298;2023-07-31T08:07:00;5.70;;;3.88;;
22937;SDS011;11634;42.734;23.298;2023-07-31T08:09:25;4.55;;;4.00;;
22937;SDS011;11634;42.734;23.298;2023-07-31T08:11:51;5.20;;;4.13;;
22937;SDS011;11634;42.734;23.298;2023-07-31T08:14:18;4.82;;;3.83;;
22937;SDS011;11634;42.734;23.298;2023-07-31T08:16:44;4.50;;;3.60;;
22937;SDS011;11634;42.734;23.298;2023-07-31T08:19:09;5.32;;;3.90;;
22937;SDS011;11634;42.734;23.298;2023-07-31T08:21:35;4.68;;;3.80;;
22937;SDS011;11634;42.734;23.298;2023-07-31T08:24:00;6.50;;;3.80;;
22937;SDS011;11634;42.734;23.298;2023-07-31T08:26:25;6.88;;;4.38;;
22937;SDS011;11634;42.734;23.298;2023-07-31T08:28:51;4.18;;;3.53;;
22937;SDS011;11634;42.734;23.298;2023-07-31T08:31:17;4.72;;;3.67;;
22937;SDS011;11634;42.734;23.298;2023-07-31T08:33:43;3.60;;;3.22;;
22937;SDS011;11634;42.734;23.298;2023-07-31T08:36:11;7.57;;;3.95;;
22937;SDS011;11634;42.734;23.298;2023-07-31T08:38:37;4.50;;;3.70;;
22937;SDS011;11634;42.734;23.298;2023-07-31T08:41:03;3.90;;;3.60;;
22937;SDS011;11634;42.734;23.298;2023-07-31T08:43:28;5.75;;;3.67;;
22937;SDS011;11634;42.734;23.298;2023-07-31T08:45:55;3.20;;;2.90;;
22937;SDS011;11634;42.734;23.298;2023-07-31T08:48:21;3.20;;;2.90;;
22937;SDS011;11634;42.734;23.298;2023-07-31T08:50:47;5.75;;;3.55;;
22937;SDS011;11634;42.734;23.298;2023-07-31T08:53:13;4.65;;;3.20;;
22937;SDS011;11634;42.734;23.298;2023-07-31T08:55:38;5.30;;;3.20;;
22937;SDS011;11634;42.734;23.298;2023-07-31T08:58:08;3.38;;;2.90;;
22937;SDS011;11634;42.734;23.298;2023-07-31T09:00:35;8.13;;;3.55;;
22937;SDS011;11634;42.734;23.298;2023-07-31T09:03:02;4.22;;;3.35;;
22937;SDS011;11634;42.734;23.298;2023-07-31T09:05:30;5.72;;;3.60;;
22937;SDS011;11634;42.734;23.298;2023-07-31T09:07:56;3.63;;;3.30;;
22937;SDS011;11634;42.734;23.298;2023-07-31T09:10:22;5.68;;;3.22;;
22937;SDS011;11634;42.734;23.298;2023-07-31T09:12:48;4.28;;;3.28;;
22937;SDS011;11634;42.734;23.298;2023-07-31T09:15:13;3.90;;;3.42;;
22937;SDS011;11634;42.734;23.298;2023-07-31T09:17:39;11.80;;;3.95;;
22937;SDS011;11634;42.734;23.298;2023-07-31T09:20:14;4.10;;;3.10;;
22937;SDS011;11634;42.734;23.298;2023-07-31T09:22:40;5.10;;;3.03;;
22937;SDS011;11634;42.734;23.298;2023-07-31T09:30:51;5.18;;;3.00;;
22937;SDS011;11634;42.734;23.298;2023-07-31T09:33:17;5.95;;;3.15;;
22937;SDS011;11634;42.734;23.298;2023-07-31T09:35:42;3.45;;;2.80;;
22937;SDS011;11634;42.734;23.298;2023-07-31T09:38:11;2.60;;;2.40;;
22937;SDS011;11634;42.734;23.298;2023-07-31T09:40:38;2.70;;;2.42;;
22937;SDS011;11634;42.734;23.298;2023-07-31T09:43:04;2.90;;;2.60;;
22937;SDS011;11634;42.734;23.298;2023-07-31T09:45:34;3.50;;;2.70;;
22937;SDS011;11634;42.734;23.298;2023-07-31T09:47:59;5.43;;;3.05;;
22937;SDS011;11634;42.734;23.298;2023-07-31T09:50:28;3.42;;;2.58;;
22937;SDS011;11634;42.734;23.298;2023-07-31T09:53:00;3.30;;;2.22;;
22937;SDS011;11634;42.734;23.298;2023-07-31T09:55:25;3.28;;;2.15;;
22937;SDS011;11634;42.734;23.298;2023-07-31T09:57:51;2.63;;;2.20;;
22937;SDS011;11634;42.734;23.298;2023-07-31T10:00:18;3.67;;;2.25;;
22937;SDS011;11634;42.734;23.298;2023-07-31T10:02:47;193.43;;;12.82;;
22937;SDS011;11634;42.734;23.298;2023-07-31T10:05:15;3.15;;;2.20;;
22937;SDS011;11634;42.734;23.298;2023-07-31T10:19:21;3.17;;;2.08;;
22937;SDS011;11634;42.734;23.298;2023-07-31T10:21:48;3.03;;;2.20;;
22937;SDS011;11634;42.734;23.298;2023-07-31T10:24:14;2.35;;;2.13;;
22937;SDS011;11634;42.734;23.298;2023-07-31T10:26:44;4.50;;;2.00;;
22937;SDS011;11634;42.734;23.298;2023-07-31T10:29:17;2.70;;;2.13;;
22937;SDS011;11634;42.734;23.298;2023-07-31T10:31:45;3.03;;;2.15;;
22937;SDS011;11634;42.734;23.298;2023-07-31T10:34:12;2.20;;;2.00;;
22937;SDS011;11634;42.734;23.298;2023-07-31T10:36:40;1.95;;;1.85;;
22937;SDS011;11634;42.734;23.298;2023-07-31T10:39:05;2.38;;;2.00;;
22937;SDS011;11634;42.734;23.298;2023-07-31T10:42:13;3.30;;;2.35;;
22937;SDS011;11634;42.734;23.298;2023-07-31T10:44:46;2.70;;;2.33;;
22937;SDS011;11634;42.734;23.298;2023-07-31T10:47:15;3.13;;;2.63;;
22937;SDS011;11634;42.734;23.298;2023-07-31T10:49:44;2.20;;;2.00;;
22937;SDS011;11634;42.734;23.298;2023-07-31T10:52:12;2.38;;;2.05;;
22937;SDS011;11634;42.734;23.298;2023-07-31T10:54:38;2.28;;;2.08;;
22937;SDS011;11634;42.734;23.298;2023-07-31T10:57:18;2.47;;;2.28;;
22937;SDS011;11634;42.734;23.298;2023-07-31T10:59:50;2.30;;;2.03;;
22937;SDS011;11634;42.734;23.298;2023-07-31T11:02:32;2.20;;;2.00;;
22937;SDS011;11634;42.734;23.298;2023-07-31T11:05:21;2.20;;;2.00;;
22937;SDS011;11634;42.734;23.298;2023-07-31T11:07:50;2.47;;;1.80;;
22937;SDS011;11634;42.734;23.298;2023-07-31T11:10:16;2.22;;;1.98;;
22937;SDS011;11634;42.734;23.298;2023-07-31T11:12:45;4.80;;;2.50;;
22937;SDS011;11634;42.734;23.298;2023-07-31T11:15:12;3.75;;;2.28;;
22937;SDS011;11634;42.734;23.298;2023-07-31T11:17:55;3.03;;;1.98;;
22937;SDS011;11634;42.734;23.298;2023-07-31T11:20:35;2.97;;;1.88;;
22937;SDS011;11634;42.734;23.298;2023-07-31T11:23:08;2.67;;;1.95;;
22937;SDS011;11634;42.734;23.298;2023-07-31T11:25:35;4.07;;;1.83;;
22937;SDS011;11634;42.734;23.298;2023-07-31T11:28:14;5.30;;;1.75;;
22937;SDS011;11634;42.734;23.298;2023-07-31T11:30:51;2.75;;;2.40;;
22937;SDS011;11634;42.734;23.298;2023-07-31T11:33:26;2.45;;;2.25;;
22937;SDS011;11634;42.734;23.298;2023-07-31T11:35:52;2.92;;;2.72;;
22937;SDS011;11634;42.734;23.298;2023-07-31T11:38:21;3.35;;;2.90;;
22937;SDS011;11634;42.734;23.298;2023-07-31T11:40:55;6.65;;;2.65;;
22937;SDS011;11634;42.734;23.298;2023-07-31T11:43:29;3.50;;;2.97;;
22937;SDS011;11634;42.734;23.298;2023-07-31T11:45:57;2.22;;;2.03;;
22937;SDS011;11634;42.734;23.298;2023-07-31T11:48:39;4.38;;;2.30;;
22937;SDS011;11634;42.734;23.298;2023-07-31T11:51:09;4.43;;;2.40;;
22937;SDS011;11634;42.734;23.298;2023-07-31T11:56:19;4.32;;;2.88;;
22937;SDS011;11634;42.734;23.298;2023-07-31T11:58:51;3.88;;;2.70;;
22937;SDS011;11634;42.734;23.298;2023-07-31T12:01:21;5.53;;;2.80;;
22937;SDS011;11634;42.734;23.298;2023-07-31T12:03:48;3.42;;;2.95;;
22937;SDS011;11634;42.734;23.298;2023-07-31T12:06:15;4.47;;;3.97;;
22937;SDS011;11634;42.734;23.298;2023-07-31T12:08:46;5.30;;;4.80;;
22937;SDS011;11634;42.734;23.298;2023-07-31T12:11:12;7.63;;;5.40;;
22937;SDS011;11634;42.734;23.298;2023-07-31T12:13:46;6.63;;;4.95;;
22937;SDS011;11634;42.734;23.298;2023-07-31T12:16:12;7.97;;;5.57;;
22937;SDS011;11634;42.734;23.298;2023-07-31T12:18:38;6.18;;;5.03;;
22937;SDS011;11634;42.734;23.298;2023-07-31T12:21:05;6.93;;;4.45;;
22937;SDS011;11634;42.734;23.298;2023-07-31T12:23:34;5.25;;;4.55;;
22937;SDS011;11634;42.734;23.298;2023-07-31T12:26:08;5.10;;;4.80;;
22937;SDS011;11634;42.734;23.298;2023-07-31T12:28:44;7.95;;;5.60;;
22937;SDS011;11634;42.734;23.298;2023-07-31T12:31:18;5.65;;;5.22;;
22937;SDS011;11634;42.734;23.298;2023-07-31T12:33:53;6.00;;;5.32;;
22937;SDS011;11634;42.734;23.298;2023-07-31T12:36:22;5.10;;;4.70;;
22937;SDS011;11634;42.734;23.298;2023-07-31T12:38:53;5.15;;;4.75;;
22937;SDS011;11634;42.734;23.298;2023-07-31T12:41:22;5.28;;;4.70;;
22937;SDS011;11634;42.734;23.298;2023-07-31T12:43:49;5.85;;;5.05;;
22937;SDS011;11634;42.734;23.298;2023-07-31T12:46:14;6.40;;;5.47;;
22937;SDS011;11634;42.734;23.298;2023-07-31T12:48:48;6.35;;;5.85;;
22937;SDS011;11634;42.734;23.298;2023-07-31T12:51:22;6.45;;;5.88;;
22937;SDS011;11634;42.734;23.298;2023-07-31T12:53:54;7.53;;;6.30;;
22937;SDS011;11634;42.734;23.298;2023-07-31T12:56:34;6.90;;;6.30;;
22937;SDS011;11634;42.734;23.298;2023-07-31T12:59:02;6.78;;;6.18;;
22937;SDS011;11634;42.734;23.298;2023-07-31T13:01:31;7.50;;;5.97;;
22937;SDS011;11634;42.734;23.298;2023-07-31T13:03:57;6.70;;;6.20;;
22937;SDS011;11634;42.734;23.298;2023-07-31T13:06:24;8.30;;;5.57;;
22937;SDS011;11634;42.734;23.298;2023-07-31T13:08:50;8.63;;;5.07;;
22937;SDS011;11634;42.734;23.298;2023-07-31T13:11:16;5.63;;;4.55;;
22937;SDS011;11634;42.734;23.298;2023-07-31T13:13:45;5.13;;;4.72;;
22937;SDS011;11634;42.734;23.298;2023-07-31T13:16:10;5.22;;;4.65;;
22937;SDS011;11634;42.734;23.298;2023-07-31T13:18:36;4.93;;;4.45;;
22937;SDS011;11634;42.734;23.298;2023-07-31T13:21:01;5.10;;;4.68;;
22937;SDS011;11634;42.734;23.298;2023-07-31T13:23:29;5.30;;;4.80;;
22937;SDS011;11634;42.734;23.298;2023-07-31T13:25:55;6.00;;;4.50;;
22937;SDS011;11634;42.734;23.298;2023-07-31T13:28:24;7.70;;;4.90;;
22937;SDS011;11634;42.734;23.298;2023-07-31T13:30:50;7.47;;;4.55;;
22937;SDS011;11634;42.734;23.298;2023-07-31T13:33:15;5.13;;;4.72;;
22937;SDS011;11634;42.734;23.298;2023-07-31T13:35:42;5.82;;;4.47;;
22937;SDS011;11634;42.734;23.298;2023-07-31T13:38:10;5.88;;;4.63;;
22937;SDS011;11634;42.734;23.298;2023-07-31T13:40:35;6.88;;;4.40;;
22937;SDS011;11634;42.734;23.298;2023-07-31T13:43:03;5.03;;;4.53;;
22937;SDS011;11634;42.734;23.298;2023-07-31T13:45:29;4.80;;;4.40;;
22937;SDS011;11634;42.734;23.298;2023-07-31T13:47:54;4.53;;;4.15;;
22937;SDS011;11634;42.734;23.298;2023-07-31T13:50:21;4.85;;;4.25;;
22937;SDS011;11634;42.734;23.298;2023-07-31T13:52:50;4.65;;;4.05;;
22937;SDS011;11634;42.734;23.298;2023-07-31T13:55:19;4.70;;;4.18;;
22937;SDS011;11634;42.734;23.298;2023-07-31T13:57:49;5.35;;;4.63;;
22937;SDS011;11634;42.734;23.298;2023-07-31T14:00:17;4.18;;;3.83;;
22937;SDS011;11634;42.734;23.298;2023-07-31T14:02:47;5.82;;;4.70;;
22937;SDS011;11634;42.734;23.298;2023-07-31T14:05:13;4.75;;;4.35;;
22937;SDS011;11634;42.734;23.298;2023-07-31T14:07:38;4.72;;;4.32;;
22937;SDS011;11634;42.734;23.298;2023-07-31T14:10:05;4.30;;;4.00;;
22937;SDS011;11634;42.734;23.298;2023-07-31T14:12:31;4.93;;;3.88;;
22937;SDS011;11634;42.734;23.298;2023-07-31T14:14:56;4.60;;;3.78;;
22937;SDS011;11634;42.734;23.298;2023-07-31T14:17:25;4.53;;;4.05;;
22937;SDS011;11634;42.734;23.298;2023-07-31T14:19:53;5.25;;;4.65;;
22937;SDS011;11634;42.734;23.298;2023-07-31T14:25:08;4.65;;;4.22;;
22937;SDS011;11634;42.734;23.298;2023-07-31T14:27:37;5.35;;;3.65;;
22937;SDS011;11634;42.734;23.298;2023-07-31T14:30:06;5.57;;;3.95;;
22937;SDS011;11634;42.734;23.298;2023-07-31T14:32:34;6.30;;;4.10;;
22937;SDS011;11634;42.734;23.298;2023-07-31T14:35:10;4.10;;;3.80;;
22937;SDS011;11634;42.734;23.298;2023-07-31T14:40:06;4.32;;;3.75;;
22937;SDS011;11634;42.734;23.298;2023-07-31T14:42:33;3.85;;;3.53;;
22937;SDS011;11634;42.734;23.298;2023-07-31T14:44:59;6.30;;;3.22;;
22937;SDS011;11634;42.734;23.298;2023-07-31T14:47:26;4.38;;;3.72;;
22937;SDS011;11634;42.734;23.298;2023-07-31T14:49:51;4.45;;;3.80;;
22937;SDS011;11634;42.734;23.298;2023-07-31T14:52:17;4.55;;;3.22;;
22937;SDS011;11634;42.734;23.298;2023-07-31T14:54:43;4.35;;;3.00;;
22937;SDS011;11634;42.734;23.298;2023-07-31T14:57:10;3.67;;;3.38;;